createdAt,value
2022-11-13T00:02:21.216Z,101841.31
2022-11-13T00:05:25.324Z,101802.34
2022-11-13T00:08:27.972Z,101800.06
2022-11-13T00:11:30.918Z,101796.59
2022-11-13T00:14:33.617Z,101799.13
2022-11-13T00:17:36.162Z,101801.16
2022-11-13T00:20:40.182Z,101779.22
2022-11-13T00:23:43.566Z,101802.31
2022-11-13T00:26:45.962Z,101769.38
2022-11-13T00:29:48.682Z,101809.22
2022-11-13T00:32:51.243Z,101753.97
2022-11-13T00:35:55.331Z,101793.03
2022-11-13T00:38:59.013Z,101760.44
2022-11-13T00:42:01.875Z,101799.25
2022-11-13T00:45:04.501Z,101765.78
2022-11-13T00:48:07.499Z,101802.22
2022-11-13T00:51:11.559Z,101796.09
2022-11-13T00:54:14.105Z,101725.78
2022-11-13T00:57:16.642Z,101795.16
2022-11-13T01:00:19.350Z,101795.41
2022-11-13T01:03:21.723Z,101756.53
2022-11-13T01:06:27.281Z,101763.94
2022-11-13T01:09:29.673Z,101784.59
2022-11-13T01:12:32.234Z,101786.53
2022-11-13T01:15:34.686Z,101757.78
2022-11-13T01:18:37.769Z,101789.41
2022-11-13T01:21:41.446Z,101782.38
2022-11-13T01:24:44.168Z,101795.03
2022-11-13T01:27:47.222Z,101778.84
2022-11-13T01:30:49.723Z,101794.78
2022-11-13T01:33:52.481Z,101787.84
2022-11-13T01:36:56.041Z,101764.28
2022-11-13T01:39:58.391Z,101764.59
2022-11-13T01:43:00.997Z,101790.06
2022-11-13T01:46:20.639Z,101789.09
2022-11-13T01:49:32.251Z,101768.94
2022-11-13T01:52:39.221Z,101775.78
2022-11-13T01:55:42.193Z,101755.22
2022-11-13T01:58:47.879Z,101777.22
2022-11-13T02:01:50.413Z,101775.47
2022-11-13T02:04:53.006Z,101783.75
2022-11-13T02:07:56.539Z,101755.16
2022-11-13T02:10:59.035Z,101770.91
2022-11-13T02:14:02.233Z,101754.94
2022-11-13T02:17:09.304Z,101780.88
2022-11-13T02:20:12.723Z,101777.38
2022-11-13T02:23:26.177Z,101780.25
2022-11-13T02:26:32.737Z,101776.09
2022-11-13T02:29:35.164Z,101777.41
2022-11-13T02:32:43.057Z,101770.47
2022-11-13T02:35:45.425Z,101773.84
2022-11-13T02:38:48.695Z,101740.56
2022-11-13T02:41:52.494Z,101783.66
2022-11-13T02:44:55.023Z,101778.97
2022-11-13T02:47:57.537Z,101766.81
2022-11-13T02:50:59.442Z,101793.84
2022-11-13T02:54:02.051Z,101788.81
2022-11-13T02:57:05.551Z,101796.91
2022-11-13T03:00:13.549Z,101774.47
2022-11-13T03:03:24.825Z,101791.94
2022-11-13T03:06:38.987Z,101791.44
2022-11-13T03:09:42.372Z,101796.69
2022-11-13T03:12:45.993Z,101800.34
2022-11-13T03:15:48.574Z,101724.09
2022-11-13T03:18:50.934Z,101768.59
2022-11-13T03:21:53.250Z,101758.88
2022-11-13T03:24:55.762Z,101807.81
2022-11-13T03:27:59.643Z,101764.16
2022-11-13T03:31:02.777Z,101760.94
2022-11-13T03:34:05.417Z,101729.16
2022-11-13T03:37:07.828Z,101782.97
2022-11-13T03:40:11.281Z,101802.91
2022-11-13T03:43:15.019Z,101806.22
2022-11-13T03:46:17.473Z,101714.47
2022-11-13T03:49:19.688Z,101754.44
2022-11-13T03:52:22.289Z,101765.41
2022-11-13T03:55:24.815Z,101755.66
2022-11-13T03:58:29.194Z,101756.44
2022-11-13T04:01:32.307Z,101759.16
2022-11-13T04:04:35.027Z,101742.56
2022-11-13T04:07:37.275Z,101790.09
2022-11-13T04:10:40.217Z,101754.50
2022-11-13T04:13:44.134Z,101788.22
2022-11-13T04:16:46.681Z,101778.53
2022-11-13T04:19:48.582Z,101787.41
2022-11-13T04:22:50.791Z,101786.44
2022-11-13T04:25:52.855Z,101788.38
2022-11-13T04:28:56.352Z,101775.50
2022-11-13T04:31:58.687Z,101787.59
2022-11-13T04:35:00.626Z,101788.06
2022-11-13T04:38:02.894Z,101790.63
2022-11-13T04:41:22.692Z,101799.03
2022-11-13T04:44:26.313Z,101788.59
2022-11-13T04:47:28.876Z,101790.47
2022-11-13T04:50:30.971Z,101761.44
2022-11-13T04:53:33.193Z,101800.13
2022-11-13T04:56:35.314Z,101796.41
2022-11-13T04:59:39.290Z,101792.88
2022-11-13T05:02:41.972Z,101797.38
2022-11-13T05:05:44.735Z,101788.78
2022-11-13T05:08:47.695Z,101758.38
2022-11-13T05:11:50.148Z,101751.25
2022-11-13T05:14:54.033Z,101791.25
2022-11-13T05:17:56.141Z,101795.97
2022-11-13T05:20:58.569Z,101795.97
2022-11-13T05:24:01.202Z,101798.16
2022-11-13T05:27:03.068Z,101795.47
2022-11-13T05:30:07.697Z,101803.59
2022-11-13T05:33:10.250Z,101765.91
2022-11-13T05:36:14.261Z,101807.38
2022-11-13T05:39:16.767Z,101800.66
2022-11-13T05:42:19.172Z,101811.94
2022-11-13T05:45:23.234Z,101812.50
2022-11-13T05:48:25.620Z,101812.25
2022-11-13T05:51:29.509Z,101812.47
2022-11-13T05:54:31.687Z,101810.13
2022-11-13T05:57:33.577Z,101813.38
2022-11-13T06:00:37.711Z,101821.59
2022-11-13T06:03:40.325Z,101839.09
2022-11-13T06:06:43.213Z,101822.28
2022-11-13T06:09:45.673Z,101793.44
2022-11-13T06:12:48.017Z,101828.19
2022-11-13T06:15:52.003Z,101835.13
2022-11-13T06:18:57.982Z,101827.59
2022-11-13T06:22:00.372Z,101827.22
2022-11-13T06:25:02.783Z,101819.97
2022-11-13T06:28:05.672Z,101830.34
2022-11-13T06:31:12.247Z,101815.25
2022-11-13T06:34:14.734Z,101826.50
2022-11-13T06:37:16.975Z,101832.47
2022-11-13T06:40:19.677Z,101835.13
2022-11-13T06:43:21.942Z,101831.53
2022-11-13T06:46:27.769Z,101811.41
2022-11-13T06:49:30.347Z,101810.88
2022-11-13T06:52:32.654Z,101821.13
2022-11-13T06:55:34.984Z,101821.63
2022-11-13T06:58:38.166Z,101824.69
2022-11-13T07:01:42.209Z,101819.44
2022-11-13T07:04:44.715Z,101814.28
2022-11-13T07:07:47.481Z,101808.47
2022-11-13T07:10:54.784Z,101806.25
2022-11-13T07:13:57.156Z,101804.16
2022-11-13T07:17:10.111Z,101801.03
2022-11-13T07:20:13.292Z,101803.69
2022-11-13T07:23:15.804Z,101803.31
2022-11-13T07:26:18.524Z,101794.94
2022-11-13T07:29:20.904Z,101792.75
2022-11-13T07:32:24.780Z,101779.75
2022-11-13T07:35:27.189Z,101758.72
2022-11-13T07:38:29.669Z,101790.16
2022-11-13T07:41:32.013Z,101794.72
2022-11-13T07:44:53.684Z,101785.66
2022-11-13T07:48:00.678Z,101786.25
2022-11-13T07:51:03.994Z,101787.28
2022-11-13T07:54:06.287Z,101792.19
2022-11-13T07:57:08.560Z,101781.03
2022-11-13T08:00:11.911Z,101760.97
2022-11-13T08:03:17.357Z,101780.81
2022-11-13T08:06:19.793Z,101788.59
2022-11-13T08:09:22.502Z,101787.06
2022-11-13T08:12:24.688Z,101784.44
2022-11-13T08:15:26.733Z,101782.75
2022-11-13T08:18:31.322Z,101788.31
2022-11-13T08:21:33.937Z,101768.47
2022-11-13T08:24:36.389Z,101776.22
2022-11-13T08:27:38.725Z,101782.28
2022-11-13T08:30:41.083Z,101747.25
2022-11-13T08:33:45.036Z,101780.88
2022-11-13T08:36:48.995Z,101775.72
2022-11-13T08:39:51.730Z,101777.38
2022-11-13T08:42:54.161Z,101773.69
2022-11-13T08:45:56.894Z,101735.78
2022-11-13T08:49:01.043Z,101743.13
2022-11-13T08:52:03.325Z,101728.88
2022-11-13T08:55:06.383Z,101763.84
2022-11-13T08:58:08.565Z,101759.31
2022-11-13T09:01:10.978Z,101746.28
2022-11-13T09:04:14.700Z,101757.41
2022-11-13T09:07:17.539Z,101736.94
2022-11-13T09:10:20.421Z,101754.16
2022-11-13T09:13:23.050Z,101721.66
2022-11-13T09:16:25.072Z,101740.69
2022-11-13T09:19:29.167Z,101737.53
2022-11-13T09:22:31.474Z,101722.00
2022-11-13T09:25:37.902Z,101708.97
2022-11-13T09:28:41.326Z,101718.38
2022-11-13T09:31:43.876Z,101683.38
2022-11-13T09:34:47.501Z,101716.44
2022-11-13T09:37:53.147Z,101702.47
2022-11-13T09:41:01.782Z,101683.75
2022-11-13T09:44:07.028Z,101699.72
2022-11-13T09:47:14.840Z,101691.91
2022-11-13T09:50:23.540Z,101690.06
2022-11-13T09:53:27.520Z,101679.09
2022-11-13T09:56:34.343Z,101670.00
2022-11-13T09:59:42.624Z,101679.03
2022-11-13T10:02:59.744Z,101673.75
2022-11-13T10:06:13.085Z,101673.09
2022-11-13T10:09:27.939Z,101669.44
2022-11-13T10:12:32.917Z,101667.75
2022-11-13T10:15:37.944Z,101631.03
2022-11-13T10:18:41.192Z,101661.94
2022-11-13T10:21:52.193Z,101671.25
2022-11-13T10:25:04.323Z,101655.00
2022-11-13T10:28:48.260Z,101635.38
2022-11-13T10:31:46.399Z,101661.03
2022-11-13T10:34:54.126Z,101632.44
2022-11-13T10:38:06.590Z,101628.06
2022-11-13T10:41:14.068Z,101600.56
2022-11-13T10:44:30.075Z,101624.22
2022-11-13T10:48:02.592Z,101521.81
2022-11-13T10:51:01.679Z,101633.13
2022-11-13T10:54:23.465Z,101632.44
2022-11-13T10:57:30.509Z,101617.53
2022-11-13T11:00:35.553Z,101618.50
2022-11-13T11:03:38.194Z,101598.94
2022-11-13T11:07:18.366Z,101634.34
2022-11-13T11:10:20.361Z,101610.94
2022-11-13T11:13:24.433Z,101616.25
2022-11-13T11:16:28.041Z,101621.25
2022-11-13T11:19:35.753Z,101632.38
2022-11-13T11:22:40.791Z,101615.97
2022-11-13T11:25:50.609Z,101617.81
2022-11-13T11:29:02.065Z,101598.06
2022-11-13T11:32:12.417Z,101613.16
2022-11-13T11:35:20.297Z,101618.09
2022-11-13T11:38:28.755Z,101622.88
2022-11-13T11:41:39.484Z,101567.44
2022-11-13T11:44:54.094Z,101615.56
2022-11-13T11:47:57.474Z,101613.31
2022-11-13T11:51:08.842Z,101613.00
2022-11-13T11:54:20.844Z,101608.25
2022-11-13T11:57:38.154Z,101616.41
2022-11-13T12:00:48.810Z,101602.97
2022-11-13T12:04:16.127Z,101601.31
2022-11-13T12:07:34.280Z,101591.09
2022-11-13T12:10:44.236Z,101607.56
2022-11-13T12:14:00.395Z,101593.47
2022-11-13T12:17:17.509Z,101599.72
2022-11-13T12:20:27.272Z,101592.75
2022-11-13T12:23:42.935Z,101590.47
2022-11-13T12:26:51.594Z,101600.66
2022-11-13T12:30:08.952Z,101592.97
2022-11-13T12:33:24.574Z,101588.91
2022-11-13T12:36:27.234Z,101586.44
2022-11-13T12:39:41.151Z,101577.38
2022-11-13T12:42:48.232Z,101580.06
2022-11-13T12:45:55.069Z,101585.16
2022-11-13T12:48:57.535Z,101583.16
2022-11-13T12:52:01.856Z,101584.69
2022-11-13T12:55:06.457Z,101591.56
2022-11-13T12:58:11.965Z,101590.22
2022-11-13T13:01:20.092Z,101578.19
2022-11-13T13:04:43.954Z,101592.44
2022-11-13T13:08:05.882Z,101591.44
2022-11-13T13:11:17.924Z,101585.72
2022-11-13T13:14:34.726Z,101583.25
2022-11-13T13:17:41.085Z,101567.97
2022-11-13T13:20:47.831Z,101579.34
2022-11-13T13:23:51.874Z,101571.81
2022-11-13T13:26:54.198Z,101553.81
2022-11-13T13:29:56.520Z,101532.00
2022-11-13T13:33:14.582Z,101586.97
2022-11-13T13:36:30.982Z,101571.22
2022-11-13T13:39:45.016Z,101546.91
2022-11-13T13:43:01.600Z,101588.19
2022-11-13T13:46:14.878Z,101576.53
2022-11-13T13:49:21.651Z,101574.13
2022-11-13T13:52:33.140Z,101564.88
2022-11-13T13:55:39.014Z,101564.75
2022-11-13T13:58:42.063Z,101553.28
2022-11-13T14:01:55.652Z,101524.47
2022-11-13T14:04:59.983Z,101558.13
2022-11-13T14:08:07.636Z,101529.44
2022-11-13T14:11:21.497Z,101567.75
2022-11-13T14:14:25.529Z,101523.72
2022-11-13T14:17:29.239Z,101558.31
2022-11-13T14:20:39.323Z,101556.44
2022-11-13T14:23:45.969Z,101565.97
2022-11-13T14:26:49.298Z,101561.00
2022-11-13T14:29:55.005Z,101550.03
2022-11-13T14:32:59.092Z,101522.00
2022-11-13T14:36:03.923Z,101516.16
2022-11-13T14:39:06.539Z,101520.66
2022-11-13T14:42:17.719Z,101521.56
2022-11-13T14:45:22.409Z,101512.28
2022-11-13T14:48:27.186Z,101549.25
2022-11-13T14:51:33.979Z,101553.63
2022-11-13T14:55:08.106Z,101508.16
2022-11-13T14:58:00.520Z,101500.25
2022-11-13T15:01:16.470Z,101509.63
2022-11-13T15:04:19.167Z,101532.78
2022-11-13T15:07:29.975Z,101506.81
2022-11-13T15:10:33.392Z,101502.31
2022-11-13T15:13:35.968Z,101529.25
2022-11-13T15:16:38.149Z,101526.31
2022-11-13T15:19:40.582Z,101539.94
2022-11-13T15:22:44.604Z,101530.13
2022-11-13T15:25:47.007Z,101536.53
2022-11-13T15:28:49.284Z,101544.69
2022-11-13T15:31:51.925Z,101493.41
2022-11-13T15:34:54.806Z,101545.63
2022-11-13T15:37:58.731Z,101546.13
2022-11-13T15:41:01.309Z,101501.44
2022-11-13T15:44:08.461Z,101547.53
2022-11-13T15:47:26.892Z,101553.06
2022-11-13T15:50:28.983Z,101545.31
2022-11-13T15:53:32.548Z,101538.28
2022-11-13T15:56:35.202Z,101535.81
2022-11-13T15:59:37.895Z,101522.56
2022-11-13T16:02:40.100Z,101532.78
2022-11-13T16:05:42.245Z,101532.06
2022-11-13T16:08:46.525Z,101536.16
2022-11-13T16:11:48.667Z,101530.75
2022-11-13T16:14:50.566Z,101539.59
2022-11-13T16:17:56.681Z,101542.47
2022-11-13T16:20:59.387Z,101542.19
2022-11-13T16:24:02.926Z,101504.13
2022-11-13T16:27:05.681Z,101514.56
2022-11-13T16:30:15.571Z,101545.84
2022-11-13T16:33:18.356Z,101508.38
2022-11-13T16:36:22.624Z,101547.75
2022-11-13T16:39:26.468Z,101546.19
2022-11-13T16:42:31.015Z,101551.00
2022-11-13T16:45:33.308Z,101551.44
2022-11-13T16:48:35.151Z,101546.94
2022-11-13T16:51:37.349Z,101533.03
2022-11-13T16:54:41.136Z,101535.56
2022-11-13T16:57:43.537Z,101525.28
2022-11-13T17:00:45.976Z,101537.34
2022-11-13T17:03:47.987Z,101529.72
2022-11-13T17:06:53.130Z,101528.56
2022-11-13T17:10:29.059Z,101497.19
2022-11-13T17:13:21.762Z,101527.63
2022-11-13T17:16:25.244Z,101537.28
2022-11-13T17:19:27.244Z,101531.47
2022-11-13T17:22:29.638Z,101526.16
2022-11-13T17:25:33.381Z,101519.63
2022-11-13T17:28:35.785Z,101529.06
2022-11-13T17:31:37.787Z,101524.25
2022-11-13T17:34:40.091Z,101526.66
2022-11-13T17:37:42.472Z,101493.22
2022-11-13T17:40:45.930Z,101513.00
2022-11-13T17:43:48.003Z,101526.78
2022-11-13T17:46:50.174Z,101530.38
2022-11-13T17:49:52.433Z,101523.44
2022-11-13T17:52:54.586Z,101519.06
2022-11-13T17:55:59.116Z,101525.03
2022-11-13T17:59:01.721Z,101489.38
2022-11-13T18:02:03.797Z,101503.22
2022-11-13T18:05:07.169Z,101501.59
2022-11-13T18:08:11.636Z,101516.84
2022-11-13T18:11:17.371Z,101513.44
2022-11-13T18:14:20.078Z,101509.53
2022-11-13T18:17:23.787Z,101512.66
2022-11-13T18:20:28.022Z,101449.28
2022-11-13T18:23:30.856Z,101432.75
2022-11-13T18:26:35.865Z,101502.66
2022-11-13T18:29:37.955Z,101502.03
2022-11-13T18:32:39.804Z,101501.31
2022-11-13T18:35:42.063Z,101498.09
2022-11-13T18:38:44.774Z,101508.06
2022-11-13T18:41:48.753Z,101503.78
2022-11-13T18:44:51.058Z,101495.97
2022-11-13T18:47:53.458Z,101496.88
2022-11-13T18:50:57.019Z,101497.66
2022-11-13T18:53:59.605Z,101501.69
2022-11-13T18:57:03.393Z,101505.19
2022-11-13T19:00:06.432Z,101499.50
2022-11-13T19:03:08.600Z,101502.31
2022-11-13T19:06:13.688Z,101501.31
2022-11-13T19:09:18.264Z,101495.22
2022-11-13T19:12:22.009Z,101492.09
2022-11-13T19:15:24.273Z,101502.69
2022-11-13T19:18:26.890Z,101500.47
2022-11-13T19:21:30.940Z,101464.50
2022-11-13T19:24:33.440Z,101500.28
2022-11-13T19:27:37.181Z,101488.22
2022-11-13T19:30:45.245Z,101434.94
2022-11-13T19:33:47.926Z,101495.03
2022-11-13T19:36:51.508Z,101491.66
2022-11-13T19:39:53.663Z,101490.47
2022-11-13T19:42:57.372Z,101443.88
2022-11-13T19:46:04.558Z,101497.31
2022-11-13T19:49:07.103Z,101495.13
2022-11-13T19:52:09.445Z,101492.50
2022-11-13T19:55:11.425Z,101495.13
2022-11-13T19:58:15.101Z,101445.69
2022-11-13T20:01:20.609Z,101498.50
2022-11-13T20:04:23.397Z,101483.56
2022-11-13T20:07:25.967Z,101470.41
2022-11-13T20:10:28.522Z,101479.91
2022-11-13T20:13:34.549Z,101472.22
2022-11-13T20:16:36.926Z,101476.53
2022-11-13T20:19:39.241Z,101472.09
2022-11-13T20:22:41.497Z,101472.78
2022-11-13T20:25:43.711Z,101469.03
2022-11-13T20:28:47.688Z,101472.09
2022-11-13T20:31:52.112Z,101467.88
2022-11-13T20:34:54.798Z,101436.19
2022-11-13T20:37:58.521Z,101463.19
2022-11-13T20:41:04.760Z,101466.50
2022-11-13T20:44:09.077Z,101452.59
2022-11-13T20:47:11.350Z,101458.78
2022-11-13T20:50:13.594Z,101464.16
2022-11-13T20:53:15.643Z,101418.22
2022-11-13T20:56:19.459Z,101457.78
2022-11-13T20:59:23.058Z,101451.66
2022-11-13T21:02:25.590Z,101451.28
2022-11-13T21:05:28.748Z,101453.69
2022-11-13T21:08:31.879Z,101461.22
2022-11-13T21:11:34.107Z,101455.13
2022-11-13T21:14:37.706Z,101456.13
2022-11-13T21:17:39.803Z,101451.66
2022-11-13T21:20:41.893Z,101450.78
2022-11-13T21:23:44.004Z,101455.84
2022-11-13T21:26:45.950Z,101441.56
2022-11-13T21:29:49.920Z,101436.09
2022-11-13T21:32:52.450Z,101445.28
2022-11-13T21:35:55.045Z,101443.50
2022-11-13T21:38:57.698Z,101441.56
2022-11-13T21:41:59.998Z,101446.59
2022-11-13T21:45:03.771Z,101439.66
2022-11-13T21:48:06.660Z,101450.97
2022-11-13T21:51:09.839Z,101445.13
2022-11-13T21:54:12.457Z,101443.09
2022-11-13T21:57:14.829Z,101436.63
2022-11-13T22:00:19.667Z,101422.47
2022-11-13T22:03:21.791Z,101263.44
2022-11-13T22:06:25.860Z,101425.91
2022-11-13T22:09:28.426Z,101419.63
2022-11-13T22:12:30.966Z,101428.13
2022-11-13T22:15:34.954Z,101416.84
2022-11-13T22:18:37.376Z,101424.06
2022-11-13T22:21:39.970Z,101401.53
2022-11-13T22:24:42.093Z,101419.38
2022-11-13T22:27:44.218Z,101407.44
2022-11-13T22:30:48.402Z,101415.59
2022-11-13T22:33:54.853Z,101407.75
2022-11-13T22:36:57.492Z,101405.81
2022-11-13T22:39:59.519Z,101417.34
2022-11-13T22:43:02.269Z,101409.94
2022-11-13T22:46:08.267Z,101411.06
2022-11-13T22:49:13.236Z,101405.34
2022-11-13T22:52:15.480Z,101399.88
2022-11-13T22:55:17.902Z,101399.25
2022-11-13T22:58:20.086Z,101400.06
2022-11-13T23:01:24.961Z,101385.53
2022-11-13T23:04:27.666Z,101388.75
2022-11-13T23:07:30.604Z,101382.78
2022-11-13T23:10:33.180Z,101338.75
2022-11-13T23:13:35.555Z,101401.63
2022-11-13T23:16:39.781Z,101393.34
2022-11-13T23:19:41.940Z,101391.44
2022-11-13T23:22:44.271Z,101397.47
2022-11-13T23:25:46.391Z,101398.34
2022-11-13T23:28:48.862Z,101393.50
2022-11-13T23:31:52.286Z,101397.56
2022-11-13T23:35:01.383Z,101400.53
2022-11-13T23:38:03.846Z,101347.75
2022-11-13T23:41:07.005Z,101391.75
2022-11-13T23:44:09.902Z,101390.06
2022-11-13T23:47:13.492Z,101400.47
2022-11-13T23:50:15.726Z,101350.63
2022-11-13T23:53:18.279Z,101380.69
2022-11-13T23:56:20.528Z,101386.50
2022-11-13T23:59:23.014Z,101381.97
